Flight Track Log - Related Links

Times and Time Zones

All times are in EDT time to prevent confusion due to time zone crossing. See the FLG3429 flight status page for this flight to view local times or setup timezone preferences in your user account.

Time Position Orientation Groundspeed Altitude Reporting Facility
EDT Latitude Longitude Course Direction KTS MPH feet Rate Location/Type
Fri 04:16:32 PM 46.2228 -119.1764 72° East 188 216 37,000  Level Seattle Center
Fri 04:17:34 PM 46.1742 -119.2417 223° Southwest 231 266 4,500 -14,585 Descending Seattle Center
Fri 04:18:00 PM 46.3698 -118.6134 73° East  Level FlightAware Approximate
Fri 04:18:35 PM 46.1192 -119.1831 144° Southeast 278 320 7,100  Level Seattle Center
Fri 04:19:00 PM 46.4064 -118.4426 73° East  Level FlightAware Approximate
Fri 04:19:36 PM 46.1400 -119.0708 75° East 288 331 9,700  Level Seattle Center
Fri 04:20:00 PM 46.4434 -118.2718 72° East  Level FlightAware Approximate
Fri 04:20:37 PM 46.1714 -118.9506 69° East 309 356 11,500  Level Seattle Center
Fri 04:21:00 PM 46.4814 -118.1013 72° East  Level FlightAware Approximate
Fri 04:21:38 PM 46.1861 -118.8111 81° East 334 384 13,600  Level Seattle Center
Fri 04:22:39 PM 46.2047 -118.6672 79° East 355 409 15,800 2,016 Climbing Seattle Center
Fri 04:23:40 PM 46.2253 -118.5086 79° East 370 426 17,700 1,770 Climbing Seattle Center
Fri 04:24:41 PM 46.2428 -118.3522 81° East 391 450 19,400 1,756 Climbing Seattle Center
Fri 04:25:43 PM 46.2617 -118.1936 80° East 399 459 21,300 1,659 Climbing Seattle Center
Fri 04:26:44 PM 46.2806 -118.0314 80° East 409 471 22,800 1,475 Climbing Seattle Center
Fri 04:27:45 PM 46.2997 -117.8669 80° East 416 479 24,300 1,426 Climbing Seattle Center
Fri 04:28:46 PM 46.3186 -117.6989 81° East 424 488 25,700 1,426 Climbing Seattle Center
Fri 04:29:47 PM 46.3417 -117.4908 81° East 437 503 27,200 1,377 Climbing Seattle Center
Fri 04:30:48 PM 46.3619 -117.3161 80° East 442 509 28,500 1,377 Climbing Seattle Center
Fri 04:31:49 PM 46.3803 -117.1403 81° East 444 511 30,000 1,328 Climbing Seattle Center
Fri 04:32:50 PM 46.3992 -116.9672 81° East 439 505 31,200 1,180 Climbing Seattle Center
Fri 04:33:51 PM 46.4178 -116.7894 81° East 447 514 32,400 836 Climbing Seattle Center
Fri 04:34:52 PM 46.4358 -116.6111 82° East 450 518 32,900 780 Climbing Seattle Center
Fri 04:35:54 PM 46.4561 -116.4258 81° East 468 539 34,000 732 Climbing Seattle Center
Fri 04:36:55 PM 46.4742 -116.2408 82° East 464 534 34,400 541 Climbing Seattle Center
Fri 04:37:56 PM 46.4928 -116.0544 82° East 469 540 35,100 787 Climbing Seattle Center
Fri 04:38:57 PM 46.5144 -115.8306 82° East 469 540 36,000 885 Climbing Seattle Center
Fri 04:39:58 PM 46.5322 -115.6389 82° East 469 540 36,900 492 Climbing Seattle Center
Fri 04:40:59 PM 46.5500 -115.4586 82° East 466 536 37,000 49 Climbing Seattle Center
Fri 04:42:00 PM 46.5667 -115.2678 83° East 475 547 37,000  Level Seattle Center
Fri 04:43:02 PM 46.5842 -115.0736 82° East 485 558 37,000  Level Seattle Center
Fri 04:44:03 PM 46.6031 -114.8622 83° East 477 549 37,000  Level Seattle Center
Fri 04:44:18 PM 46.6072 -114.8242 81° East 476 548 37,000  Level Salt Lake Center
Fri 04:45:20 PM 46.6236 -114.6364 83° East 472 543 37,000  Level Salt Lake Center
Fri 04:46:22 PM 46.6386 -114.4519 83° East 464 534 37,000  Level Salt Lake Center
Fri 04:47:23 PM 46.6544 -114.2653 83° East 466 536 37,000  Level Salt Lake Center
Fri 04:48:25 PM 46.6697 -114.0775 83° East 469 540 37,000  Level Salt Lake Center
Fri 04:49:27 PM 46.6872 -113.8500 84° East 474 545 37,000  Level Salt Lake Center
Fri 04:50:29 PM 46.7028 -113.6594 83° East 475 547 37,000 -48 Level Salt Lake Center
Fri 04:51:31 PM 46.7172 -113.4703 84° East 474 545 36,900  Descending Salt Lake Center
Fri 04:52:33 PM 46.7311 -113.2786 84° East 478 550 37,000 48 Climbing Salt Lake Center
Fri 04:53:35 PM 46.7450 -113.0883 84° East 477 549 37,000  Level Salt Lake Center
Fri 04:54:36 PM 46.7608 -112.8728 84° East 479 551 37,000  Level Salt Lake Center
Fri 04:55:38 PM 46.7750 -112.6781 84° East 485 558 37,000  Level Salt Lake Center
Fri 04:56:40 PM 46.7883 -112.4819 84° East 488 562 37,000  Level Salt Lake Center
Fri 04:57:42 PM 46.8008 -112.2831 85° East 492 566 37,000  Level Salt Lake Center
Fri 04:58:44 PM 46.8158 -112.0481 85° East 490 564 37,000  Level Salt Lake Center
Fri 04:59:46 PM 46.8275 -111.8506 85° East 490 564 37,000  Level Salt Lake Center
Fri 05:00:48 PM 46.8397 -111.6550 85° East 488 562 37,000 -49 Level Salt Lake Center
Fri 05:01:49 PM 46.8500 -111.4567 86° East 491 565 36,900 -49 Descending Salt Lake Center
Fri 05:02:51 PM 46.8622 -111.2600 85° East 491 565 36,900  Level Salt Lake Center
Fri 05:03:53 PM 46.8719 -111.0642 86° East 488 562 36,900 48 Level Salt Lake Center
Fri 05:04:55 PM 46.8847 -110.8308 85° East 486 559 37,000 48 Climbing Salt Lake Center
Fri 05:05:57 PM 46.8950 -110.6406 85° East 477 549 37,000  Level Salt Lake Center
Fri 05:06:59 PM 46.9017 -110.4511 87° East 473 544 37,000 -49 Level Salt Lake Center
Fri 05:08:00 PM 46.9125 -110.2547 85° East 483 556 36,900  Descending Salt Lake Center
Fri 05:09:02 PM 46.9206 -110.0578 87° East 486 559 37,000 48 Climbing Salt Lake Center
Fri 05:10:04 PM 46.9300 -109.8617 86° East 487 560 37,000  Level Salt Lake Center
Fri 05:11:06 PM 46.9419 -109.6236 86° East 489 563 37,000  Level Salt Lake Center
Fri 05:12:08 PM 46.9511 -109.4275 86° East 488 562 37,000  Level Salt Lake Center
Fri 05:13:09 PM 46.9547 -109.2358 88° East 482 555 37,000  Level Salt Lake Center
Fri 05:14:11 PM 46.9631 -109.0158 87° East 483 556 37,000  Level Salt Lake Center
Fri 05:15:13 PM 46.9667 -108.8161 88° East 489 563 37,000  Level Salt Lake Center
Fri 05:16:15 PM 46.9725 -108.6156 87° East 493 567 37,000  Level Salt Lake Center
Fri 05:17:17 PM 46.9797 -108.4169 87° East 492 566 37,000  Level Salt Lake Center
Fri 05:18:19 PM 46.9878 -108.2019 87° East 494 568 37,000  Level Salt Lake Center
Fri 05:19:21 PM 46.9969 -108.0022 86° East 493 567 37,000  Level Salt Lake Center
Fri 05:20:22 PM 47.0022 -107.7761 88° East 493 567 37,000  Level Salt Lake Center
Fri 05:21:24 PM 47.0069 -107.5839 88° East 493 567 37,000  Level Salt Lake Center
Fri 05:22:26 PM 47.0108 -107.3903 88° East 496 571 37,000  Level Salt Lake Center
Fri 05:23:28 PM 47.0153 -107.1656 88° East 495 570 37,000  Level Salt Lake Center
Fri 05:24:30 PM 47.0189 -106.9714 88° East 496 571 37,000  Level Salt Lake Center
Fri 05:25:32 PM 47.0225 -106.7422 89° East 502 578 37,000  Level Salt Lake Center
Fri 05:26:34 PM 47.0256 -106.5444 89° East 505 581 37,000  Level Salt Lake Center
Fri 05:27:36 PM 47.0278 -106.3094 89° East 513 590 37,000  Level Salt Lake Center
Fri 05:28:38 PM 47.0314 -106.1081 88° East 511 588 37,000  Level Salt Lake Center
Fri 05:29:40 PM 47.0317 -105.9011 90° East 510 587 37,000 -645 Level Salt Lake Center
Fri 05:31:44 PM 47.0358 -105.4944 89° East 502 578 35,000 -645 Descending Salt Lake Center
Fri 05:32:46 PM 47.0350 -105.2883 90° East 504 580 35,000  Level Salt Lake Center
Fri 05:33:48 PM 47.0358 -105.0450 90° East 503 579 35,000  Level Salt Lake Center
Fri 05:34:50 PM 47.0356 -104.8406 90° East 503 579 35,000  Level Salt Lake Center
Fri 05:35:52 PM 47.0353 -104.6314 90° East 510 587 35,000  Level Salt Lake Center
Fri 05:36:54 PM 47.0350 -104.4253 90° East 512 589 35,000  Level Salt Lake Center
Fri 05:37:56 PM 47.0333 -104.2169 91° East 513 590 35,000  Level Salt Lake Center
Fri 05:38:58 PM 47.0328 -103.9736 90° East 509 586 35,000  Level Salt Lake Center
Fri 05:40:00 PM 47.0306 -103.7692 91° East 507 583 35,000  Level Salt Lake Center
Fri 05:41:02 PM 47.0292 -103.5667 91° East 505 581 35,000  Level Salt Lake Center
Fri 05:41:20 PM 47.0289 -103.4858 90° East 503 579 35,000 -75 Level Minneapolis Center
Fri 05:42:22 PM 47.0272 -103.2792 91° East 508 585 34,900  Descending Minneapolis Center
Fri 05:43:37 PM 47.0228 -103.0336 91° East 508 585 35,000 44 Climbing Minneapolis Center
Fri 05:44:39 PM 47.0214 -102.8269 90° East 508 585 35,000  Level Minneapolis Center
Fri 05:45:41 PM 47.0169 -102.6267 92° East 502 578 35,000  Level Minneapolis Center
Fri 05:46:43 PM 47.0108 -102.3867 92° East 496 571 35,000  Level Minneapolis Center
Fri 05:47:45 PM 47.0069 -102.1867 92° East 494 568 35,000  Level Minneapolis Center
Fri 05:48:47 PM 47.0017 -101.9839 92° East 497 572 35,000  Level Minneapolis Center
Fri 05:49:49 PM 46.9956 -101.7792 92° East 502 578 35,000  Level Minneapolis Center
Fri 05:50:51 PM 46.9881 -101.5492 93° East 505 581 35,000  Level Minneapolis Center
Fri 05:51:53 PM 46.9817 -101.3400 92° East 510 587 35,000  Level Minneapolis Center
Fri 05:52:55 PM 46.9753 -101.1314 92° East 511 588 35,000  Level Minneapolis Center
Fri 05:53:57 PM 46.9689 -100.9222 92° East 513 590 35,000  Level Minneapolis Center
Fri 05:54:59 PM 46.9600 -100.7142 94° East 513 590 35,000  Level Minneapolis Center
Fri 05:56:02 PM 46.9514 -100.5142 94° East 505 581 35,000  Level Minneapolis Center
Fri 05:57:04 PM 46.9414 -100.2536 93° East 514 592 35,000  Level Minneapolis Center
Fri 05:58:06 PM 46.9347 -100.0522 93° East 508 585 35,000  Level Minneapolis Center
Fri 05:59:08 PM 46.9258 -99.8478 94° East 505 581 35,000  Level Minneapolis Center
Fri 06:00:10 PM 46.9158 -99.6431 94° East 506 582 35,000  Level Minneapolis Center
Fri 06:01:12 PM 46.9069 -99.4425 94° East 503 579 35,000  Level Minneapolis Center
Fri 06:02:14 PM 46.8969 -99.2386 94° East 503 579 35,000  Level Minneapolis Center
Fri 06:03:16 PM 46.8842 -98.9939 94° East 506 582 35,000  Level Minneapolis Center
Fri 06:04:18 PM 46.8744 -98.7886 94° East 509 586 35,000  Level Minneapolis Center
Fri 06:05:20 PM 46.8628 -98.5775 95° East 518 596 35,000  Level Minneapolis Center
Fri 06:06:22 PM 46.8506 -98.3697 95° East 520 598 35,000  Level Minneapolis Center
Fri 06:07:24 PM 46.8389 -98.1625 95° East 518 596 35,000  Level Minneapolis Center
Fri 06:08:26 PM 46.8242 -97.9142 95° East 517 595 35,000  Level Minneapolis Center
Fri 06:09:28 PM 46.8117 -97.7089 95° East 514 592 35,000  Level Minneapolis Center
Fri 06:10:30 PM 46.7981 -97.5103 96° East 504 580 35,000  Level Minneapolis Center
Fri 06:11:32 PM 46.7853 -97.3106 95° East 500 575 35,000  Level Minneapolis Center
Fri 06:12:34 PM 46.7717 -97.1133 96° East 495 570 35,000  Level Minneapolis Center
Fri 06:13:36 PM 46.7533 -96.8744 96° East 496 571 35,000  Level Minneapolis Center
Fri 06:14:38 PM 46.7031 -96.6889 112° Southeast 498 573 35,000  Level Minneapolis Center
Fri 06:15:40 PM 46.6486 -96.5036 113° Southeast 499 574 35,000  Level Minneapolis Center
Fri 06:16:42 PM 46.5925 -96.3186 114° Southeast 501 577 35,000  Level Minneapolis Center
Fri 06:17:44 PM 46.5367 -96.1350 114° Southeast 499 574 35,000  Level Minneapolis Center
Fri 06:18:46 PM 46.4808 -95.9547 114° Southeast 496 571 35,000  Level Minneapolis Center
Fri 06:19:48 PM 46.4175 -95.7494 114° Southeast 490 564 35,000  Level Minneapolis Center
Fri 06:20:50 PM 46.3611 -95.5689 114° Southeast 492 566 35,000 -484 Level Minneapolis Center
Fri 06:21:52 PM 46.3069 -95.3947 114° Southeast 493 567 34,000 -1,694 Descending Minneapolis Center
Fri 06:22:54 PM 46.2392 -95.1814 115° Southeast 490 564 31,500 -2,032 Descending Minneapolis Center
Fri 06:23:56 PM 46.1886 -95.0244 115° Southeast 494 568 29,800 -1,984 Descending Minneapolis Center
Fri 06:24:58 PM 46.1153 -94.7986 115° Southeast 516 594 27,400 -2,129 Descending Minneapolis Center
Fri 06:26:00 PM 46.0553 -94.6131 115° Southeast 515 593 25,400 -1,645 Descending Minneapolis Center
Fri 06:27:02 PM 45.9961 -94.4317 115° Southeast 505 581 24,000 -1,403 Descending Minneapolis Center
Fri 06:28:04 PM 45.9394 -94.2564 115° Southeast 490 564 22,500 -1,984 Descending Minneapolis Center
Fri 06:29:06 PM 45.8808 -94.0808 116° Southeast 488 562 19,900 -2,613 Descending Minneapolis Center
Fri 06:30:08 PM 45.8142 -93.8803 115° Southeast 474 545 17,100 -2,419 Descending Minneapolis Center
Fri 06:31:10 PM 45.7272 -93.7636 137° Southeast 437 503 14,900 -2,129 Descending Minneapolis Center
Fri 06:32:12 PM 45.6311 -93.6711 146° Southeast 415 478 12,700 -1,887 Descending Minneapolis Center
Fri 06:33:14 PM 45.5386 -93.5872 148° Southeast 396 456 11,000 -823 Descending Minneapolis Center
Fri 06:34:16 PM 45.4389 -93.5303 158° South 389 448 11,000 -48 Level Minneapolis Center
Fri 06:35:18 PM 45.3394 -93.4831 162° South 375 432 10,900 -919 Descending Minneapolis Center
Fri 06:36:20 PM 45.2389 -93.4719 176° South 300 345 9,100 -1,920 Descending Minneapolis Center
Fri 06:37:23 PM 45.1647 -93.4608 174° South 271 312 6,900 -2,016 Descending Minneapolis Center
Fri 06:38:25 PM 45.0961 -93.4544 176° South 251 289 4,900 -1,403 Descending Minneapolis Center
Fri 06:39:27 PM 45.0339 -93.4197 158° South 245 282 4,000 -871 Descending Minneapolis Center

Login

Don't have an account? Register now (free) for customized features, flight alerts, and more!